Time;durP1;ratioP1;P1;durP2;ratioP2;P2;SDS_P1;SDS_P2;PMS_P1;PMS_P2;Temp;Humidity;BMP_temperature;BMP_pressure;BME280_temperature;BME280_humidity;BME280_pressure;Samples;Min_cycle;Max_cycle;Signal;HPM_P1;HPM_P2
2021/07/22 00:01:52;;;;;;;10.20;6.68;;;;;;;18.82;71.91;100905.63;5021424;28;20040;-71
2021/07/22 00:04:36;;;;;;;9.68;6.72;;;;;;;18.76;72.14;100907.19;5035734;28;20048;-71
2021/07/22 00:07:20;;;;;;;8.75;6.50;;;;;;;18.72;72.24;100905.03;5021250;28;20107;-71
2021/07/22 00:10:04;;;;;;;9.82;6.78;;;;;;;18.66;72.74;100906.59;5035839;28;20044;-71
2021/07/22 00:12:48;;;;;;;10.77;6.93;;;;;;;18.66;73.18;100916.59;5034865;28;20056;-71
2021/07/22 00:15:33;;;;;;;12.63;7.07;;;;;;;18.64;74.01;100905.94;5020741;28;20056;-71
2021/07/22 00:18:19;;;;;;;11.00;6.38;;;;;;;18.63;73.96;100906.13;5020092;28;20048;-70
2021/07/22 00:21:06;;;;;;;9.38;6.50;;;;;;;18.60;73.66;100903.78;5034701;28;20410;-70
2021/07/22 00:23:50;;;;;;;10.85;7.05;;;;;;;18.58;74.76;100901.25;5034729;28;20095;-71
2021/07/22 00:26:37;;;;;;;9.90;6.25;;;;;;;18.55;75.03;100898.06;5020898;28;20053;-71
2021/07/22 00:29:21;;;;;;;11.60;6.65;;;;;;;18.51;74.73;100897.63;5035447;28;20056;-70
2021/07/22 00:32:06;;;;;;;8.65;6.93;;;;;;;18.48;74.98;100895.25;5034758;28;20081;-71
2021/07/22 00:34:50;;;;;;;16.42;7.32;;;;;;;18.44;74.93;100893.09;5035245;28;20103;-71
2021/07/22 00:37:34;;;;;;;13.93;6.65;;;;;;;18.41;74.68;100898.84;5035517;28;20418;-71
2021/07/22 00:40:18;;;;;;;8.43;6.57;;;;;;;18.37;74.63;100894.84;5034101;28;20128;-71
2021/07/22 00:43:04;;;;;;;10.95;6.82;;;;;;;18.30;75.20;100896.56;5035061;28;20055;-71
2021/07/22 00:45:48;;;;;;;11.25;7.25;;;;;;;18.26;75.24;100892.53;5035296;28;20099;-70
2021/07/22 00:48:32;;;;;;;13.90;7.70;;;;;;;18.25;75.45;100882.75;5034064;28;20453;-71
2021/07/22 00:51:16;;;;;;;10.77;7.43;;;;;;;18.22;75.67;100884.97;5033807;28;20044;-71
2021/07/22 00:54:00;;;;;;;13.73;6.93;;;;;;;18.19;76.10;100888.00;5034414;28;20052;-69
2021/07/22 00:56:44;;;;;;;13.82;7.00;;;;;;;18.05;77.02;100878.81;5033835;28;20421;-71
2021/07/22 00:59:28;;;;;;;16.40;7.55;;;;;;;18.05;77.13;100876.13;5020129;28;20063;-71
2021/07/22 01:02:12;;;;;;;12.85;7.38;;;;;;;18.01;77.43;100882.88;5033989;28;20457;-71
2021/07/22 01:04:56;;;;;;;10.40;7.30;;;;;;;17.99;77.87;100882.22;5019991;28;20048;-71
2021/07/22 01:07:40;;;;;;;10.82;7.35;;;;;;;17.94;77.97;100881.06;5033663;28;20044;-70
2021/07/22 01:10:23;;;;;;;10.82;7.57;;;;;;;17.90;78.60;100874.34;5033680;28;20445;-70
2021/07/22 01:13:07;;;;;;;9.25;7.05;;;;;;;17.84;78.97;100873.22;5019478;28;20049;-71
2021/07/22 01:15:51;;;;;;;13.27;7.80;;;;;;;17.78;79.13;100871.19;5034817;28;20048;-70
2021/07/22 01:18:35;;;;;;;11.27;7.68;;;;;;;17.74;79.61;100869.88;5033310;28;20533;-70
2021/07/22 01:21:19;;;;;;;11.52;8.07;;;;;;;17.75;79.40;100859.91;5034323;28;20045;-70
2021/07/22 01:24:03;;;;;;;12.45;7.70;;;;;;;17.72;79.51;100865.66;5033268;28;20056;-70
2021/07/22 01:26:47;;;;;;;11.48;7.35;;;;;;;17.70;79.63;100865.84;5033493;28;20118;-71
2021/07/22 01:29:31;;;;;;;13.73;7.80;;;;;;;17.70;79.21;100865.00;5032876;28;20467;-71
2021/07/22 01:32:15;;;;;;;9.80;7.07;;;;;;;17.67;79.17;100863.50;5019287;28;20107;-69
2021/07/22 01:34:59;;;;;;;10.65;7.78;;;;;;;17.67;79.36;100858.09;5034187;28;20048;-70
2021/07/22 01:37:43;;;;;;;11.60;7.38;;;;;;;17.60;79.71;100862.50;5034278;28;20131;-71
2021/07/22 01:40:28;;;;;;;14.82;7.78;;;;;;;17.56;79.98;100855.78;5032939;28;20044;-71
2021/07/22 01:43:12;;;;;;;14.40;7.97;;;;;;;17.54;80.15;100851.59;5033920;28;20052;-71
2021/07/22 01:45:55;;;;;;;12.02;7.97;;;;;;;17.51;80.34;100852.75;5019171;28;20048;-71
2021/07/22 01:48:39;;;;;;;9.32;7.88;;;;;;;17.50;80.62;100851.09;5033137;28;20087;-71
2021/07/22 01:51:23;;;;;;;10.45;7.78;;;;;;;17.45;81.09;100850.78;5032851;28;20056;-70
2021/07/22 01:54:07;;;;;;;15.20;8.15;;;;;;;17.41;81.35;100857.53;5033010;28;20055;-70
2021/07/22 01:56:51;;;;;;;11.40;7.82;;;;;;;17.41;81.41;100851.31;5019217;28;20094;-70
2021/07/22 01:59:35;;;;;;;17.95;7.80;;;;;;;17.35;81.83;100852.84;5018716;28;20557;-71
2021/07/22 02:02:19;;;;;;;12.77;8.30;;;;;;;17.34;82.06;100850.28;5032883;28;20088;-70
2021/07/22 02:05:03;;;;;;;13.68;8.25;;;;;;;17.27;82.79;100850.13;5033092;28;20052;-71
2021/07/22 02:07:47;;;;;;;11.90;8.20;;;;;;;17.28;82.67;100853.69;5033541;28;20107;-70
2021/07/22 02:10:31;;;;;;;13.02;7.65;;;;;;;17.27;82.79;100865.44;5018523;28;20040;-70
2021/07/22 02:13:18;;;;;;;11.77;7.88;;;;;;;17.23;83.28;100859.59;5032405;28;20072;-71
2021/07/22 02:16:06;;;;;;;11.68;7.90;;;;;;;17.18;83.35;100856.56;5019037;28;20099;-71
2021/07/22 02:18:50;;;;;;;15.38;8.05;;;;;;;17.19;83.51;100863.63;5032485;28;20175;-70
2021/07/22 02:21:36;;;;;;;12.43;8.43;;;;;;;17.12;83.92;100857.25;5018638;28;20048;-71
2021/07/22 02:24:21;;;;;;;12.13;8.25;;;;;;;17.12;84.34;100861.78;5032425;28;20044;-71
2021/07/22 02:27:04;;;;;;;9.82;7.35;;;;;;;17.11;84.43;100858.25;5033271;28;20056;-71
2021/07/22 02:29:49;;;;;;;12.82;8.55;;;;;;;17.07;84.74;100865.00;5032077;28;20143;-70
2021/07/22 02:32:32;;;;;;;13.68;8.60;;;;;;;17.01;84.79;100862.97;5018369;28;20052;-71
2021/07/22 02:35:16;;;;;;;12.88;8.27;;;;;;;17.03;85.01;100870.91;5032505;28;20098;-71
2021/07/22 02:38:00;;;;;;;14.07;8.25;;;;;;;17.00;85.26;100873.94;5032427;28;20056;-68
2021/07/22 02:40:44;;;;;;;11.95;8.07;;;;;;;16.98;85.67;100875.97;5032105;28;20091;-71
2021/07/22 02:43:28;;;;;;;14.18;8.40;;;;;;;16.94;85.50;100880.84;5018354;28;20461;-71
2021/07/22 02:46:12;;;;;;;15.75;8.43;;;;;;;16.87;86.06;100879.84;5032047;28;20128;-71
2021/07/22 02:48:57;;;;;;;12.95;7.88;;;;;;;16.86;86.26;100877.31;5018255;28;20056;-70
2021/07/22 02:51:41;;;;;;;18.05;8.40;;;;;;;16.76;87.38;100877.50;5033742;28;20091;-70
2021/07/22 02:54:25;;;;;;;11.25;8.30;;;;;;;16.76;86.79;100880.19;5018338;28;20426;-70
2021/07/22 02:57:09;;;;;;;13.13;8.73;;;;;;;16.69;87.29;100879.16;5032305;28;20047;-70
2021/07/22 02:59:53;;;;;;;13.15;7.32;;;;;;;16.72;86.92;100875.31;5032245;28;20048;-70
2021/07/22 03:02:36;;;;;;;10.23;7.80;;;;;;;16.67;87.19;100872.28;5032222;28;20052;-70
2021/07/22 03:05:20;;;;;;;11.50;7.78;;;;;;;16.65;87.21;100872.44;5033119;28;20048;-70
2021/07/22 03:08:04;;;;;;;14.18;8.18;;;;;;;16.62;87.45;100870.09;5032975;28;20048;-70
2021/07/22 03:10:49;;;;;;;13.70;8.45;;;;;;;16.65;87.50;100869.75;5032042;28;20052;-70
2021/07/22 03:13:34;;;;;;;10.48;7.50;;;;;;;16.67;87.23;100883.06;5032059;28;20048;-70
2021/07/22 03:16:18;;;;;;;16.13;8.25;;;;;;;16.68;87.23;100879.34;5032997;28;20107;-71
2021/07/22 03:19:02;;;;;;;15.18;8.77;;;;;;;16.67;87.10;100875.81;5031999;28;20123;-70
2021/07/22 03:21:46;;;;;;;11.50;8.15;;;;;;;16.66;87.29;100874.13;5018047;28;20098;-71
2021/07/22 03:24:31;;;;;;;10.57;7.68;;;;;;;16.67;87.24;100875.81;5032716;28;20049;-69
2021/07/22 03:27:15;;;;;;;10.98;8.18;;;;;;;16.60;87.75;100887.44;5031654;28;20571;-70
2021/07/22 03:29:59;;;;;;;11.05;8.35;;;;;;;16.59;87.67;100880.38;5017577;28;20048;-71
2021/07/22 03:32:42;;;;;;;12.70;7.72;;;;;;;16.60;87.63;100877.47;5017940;28;20104;-71
2021/07/22 03:35:29;;;;;;;13.85;7.88;;;;;;;16.58;87.38;100876.81;5017903;28;20100;-71
2021/07/22 03:38:14;;;;;;;12.98;8.35;;;;;;;16.60;87.41;100874.78;5032755;28;20107;-71
2021/07/22 03:40:57;;;;;;;9.68;7.53;;;;;;;16.62;86.95;100875.50;5031820;28;20064;-71
2021/07/22 03:43:42;;;;;;;12.70;8.50;;;;;;;16.61;86.88;100872.97;5031658;28;20107;-71
2021/07/22 03:46:26;;;;;;;11.10;7.57;;;;;;;16.59;86.99;100867.72;5031514;28;20063;-71
2021/07/22 03:49:10;;;;;;;11.52;8.30;;;;;;;16.56;86.98;100876.16;5031555;28;20053;-70
2021/07/22 03:51:55;;;;;;;11.77;8.18;;;;;;;16.54;87.10;100867.41;5031443;28;20076;-70
2021/07/22 03:54:38;;;;;;;;;;;;;;;16.51;88.20;100866.91;5034564;28;20513;-70
2021/07/22 03:57:23;;;;;;;14.35;8.02;;;;;;;16.46;88.35;100871.97;5035249;28;19920;-71
2021/07/22 04:00:07;;;;;;;12.30;7.50;;;;;;;16.45;88.31;100881.88;5035183;28;20092;-71
2021/07/22 04:03:01;;;;;;;9.80;7.65;;;;;;;16.49;87.95;100875.13;5034948;28;20048;-71
2021/07/22 04:05:45;;;;;;;10.57;7.68;;;;;;;16.49;87.55;100867.06;5035059;28;20084;-71
2021/07/22 04:08:30;;;;;;;10.73;7.40;;;;;;;16.51;87.61;100870.44;5021206;28;20129;-70
2021/07/22 04:11:14;;;;;;;12.35;7.65;;;;;;;16.54;87.60;100871.94;5034861;28;20044;-70
2021/07/22 04:13:57;;;;;;;14.00;7.85;;;;;;;16.52;87.61;100872.13;5034608;28;20433;-71
2021/07/22 04:16:42;;;;;;;12.90;7.97;;;;;;;16.58;87.49;100874.13;5035838;28;20410;-70
2021/07/22 04:19:26;;;;;;;13.40;7.45;;;;;;;16.59;87.24;100878.50;5020647;28;20049;-70
2021/07/22 04:22:11;;;;;;;14.50;8.32;;;;;;;16.61;86.84;100883.72;5035719;28;20052;-69
2021/07/22 04:24:55;;;;;;;14.10;7.95;;;;;;;16.64;86.85;100884.22;5035638;28;20044;-71
2021/07/22 04:27:39;;;;;;;13.98;7.88;;;;;;;16.64;86.92;100886.94;5020700;28;20055;-71
2021/07/22 04:30:23;;;;;;;12.45;8.25;;;;;;;16.70;86.52;100888.09;5034978;28;20133;-71
2021/07/22 04:33:07;;;;;;;13.48;7.95;;;;;;;16.74;86.29;100887.59;5034550;28;20098;-70
2021/07/22 04:35:57;;;;;;;14.80;7.30;;;;;;;16.77;86.12;100889.94;5020602;28;20052;-71
2021/07/22 04:38:42;;;;;;;12.10;7.80;;;;;;;16.78;85.83;100888.94;5035096;28;20076;-70
2021/07/22 04:41:26;;;;;;;11.60;7.28;;;;;;;16.79;85.90;100890.59;5034336;28;20044;-70
2021/07/22 04:44:10;;;;;;;14.55;7.95;;;;;;;16.80;86.12;100889.59;5020388;28;20044;-70
2021/07/22 04:46:54;;;;;;;11.65;7.47;;;;;;;16.82;85.96;100893.00;5035098;28;20421;-71
2021/07/22 04:49:38;;;;;;;14.63;8.70;;;;;;;16.82;85.96;100898.38;5033755;28;20469;-70
2021/07/22 04:52:22;;;;;;;12.93;8.60;;;;;;;16.88;85.84;100903.06;5033964;28;20426;-70
2021/07/22 04:55:07;;;;;;;9.75;7.55;;;;;;;16.93;85.95;100898.03;5034472;28;20134;-71
2021/07/22 04:58:00;;;;;;;12.50;7.75;;;;;;;17.05;84.92;100904.75;5034812;28;20080;-70
2021/07/22 05:00:45;;;;;;;11.25;7.50;;;;;;;17.12;85.00;100899.50;5034013;28;20048;-70
2021/07/22 05:03:29;;;;;;;13.52;8.30;;;;;;;17.22;84.52;100897.47;5019951;28;20103;-70
2021/07/22 05:06:13;;;;;;;13.18;8.20;;;;;;;17.28;83.45;100905.72;5034489;28;20114;-70
2021/07/22 05:08:57;;;;;;;13.05;8.75;;;;;;;17.35;83.18;100900.47;5033490;28;20179;-71
2021/07/22 05:11:41;;;;;;;11.32;7.40;;;;;;;17.40;82.39;100898.16;5033478;28;20048;-70
2021/07/22 05:14:25;;;;;;;13.98;8.30;;;;;;;17.46;82.43;100902.81;5033766;28;20167;-71
2021/07/22 05:17:09;;;;;;;12.23;7.70;;;;;;;17.53;81.74;100901.13;5020005;28;20072;-71
2021/07/22 05:19:53;;;;;;;13.85;7.72;;;;;;;17.60;81.44;100899.44;5033557;28;20068;-71
2021/07/22 05:22:37;;;;;;;16.50;8.27;;;;;;;17.61;81.52;100891.16;5033554;28;20091;-71
2021/07/22 05:25:21;;;;;;;9.73;7.75;;;;;;;17.61;81.73;100901.94;5034483;28;20111;-70
2021/07/22 05:28:05;;;;;;;12.27;8.02;;;;;;;17.73;81.65;100900.53;5019506;28;20064;-70
2021/07/22 05:30:49;;;;;;;12.73;8.30;;;;;;;17.75;81.49;100901.22;5033067;28;20068;-70
2021/07/22 05:33:37;;;;;;;13.05;8.40;;;;;;;17.83;81.17;100901.16;5034632;28;20083;-70
2021/07/22 05:36:21;;;;;;;11.50;7.38;;;;;;;17.92;81.09;100905.50;5033333;28;20417;-71
2021/07/22 05:39:05;;;;;;;9.95;7.03;;;;;;;18.03;80.96;100909.69;5032893;28;20560;-70
2021/07/22 05:41:49;;;;;;;11.50;8.23;;;;;;;18.07;80.76;100911.84;5034236;28;20153;-71
2021/07/22 05:44:33;;;;;;;12.32;8.63;;;;;;;18.08;80.11;100910.84;5033278;28;20109;-71
2021/07/22 05:47:16;;;;;;;13.15;7.93;;;;;;;18.25;79.26;100912.44;5033182;28;20452;-71
2021/07/22 05:50:03;;;;;;;14.38;8.05;;;;;;;18.25;80.13;100912.44;5033582;28;20483;-71
2021/07/22 05:52:47;;;;;;;14.23;7.80;;;;;;;18.26;79.77;100908.72;5034024;28;20060;-71
2021/07/22 05:55:31;;;;;;;10.77;7.78;;;;;;;18.33;79.35;100915.09;5018818;28;20469;-71
2021/07/22 05:58:15;;;;;;;13.45;8.68;;;;;;;18.41;79.19;100914.22;5032899;28;20047;-71
2021/07/22 06:00:59;;;;;;;14.50;9.00;;;;;;;18.50;78.36;100914.84;5033145;28;20049;-71
2021/07/22 06:03:43;;;;;;;13.90;7.93;;;;;;;18.47;79.06;100911.66;5033028;28;20513;-71
2021/07/22 06:06:27;;;;;;;14.25;8.02;;;;;;;18.59;79.19;100915.59;5032629;28;20418;-71
2021/07/22 06:09:11;;;;;;;14.00;8.48;;;;;;;18.70;78.74;100916.03;5033786;28;20047;-71
2021/07/22 06:11:54;;;;;;;13.30;7.95;;;;;;;18.78;78.66;100920.53;5018799;28;20049;-71
2021/07/22 06:14:38;;;;;;;12.93;8.48;;;;;;;18.88;77.88;100923.81;5032766;28;20095;-71
2021/07/22 06:17:22;;;;;;;12.48;8.65;;;;;;;18.95;78.13;100928.31;5033032;28;20075;-71
2021/07/22 06:20:07;;;;;;;12.80;8.68;;;;;;;19.02;77.75;100929.28;5032675;28;20426;-70
2021/07/22 06:22:51;;;;;;;13.45;8.80;;;;;;;19.10;77.33;100921.06;5032996;28;20052;-69
2021/07/22 06:25:35;;;;;;;12.35;9.10;;;;;;;19.27;77.20;100924.50;5032384;28;20124;-71
2021/07/22 06:28:19;;;;;;;14.75;9.15;;;;;;;19.46;76.67;100929.34;5018587;28;20140;-71
2021/07/22 06:31:03;;;;;;;18.15;9.50;;;;;;;19.65;75.80;100928.81;5018467;28;20044;-71
2021/07/22 06:33:47;;;;;;;15.13;9.38;;;;;;;19.69;75.04;100930.13;5032789;28;20060;-71
2021/07/22 06:36:31;;;;;;;14.45;9.50;;;;;;;19.84;74.80;100931.81;5032641;28;20067;-71
2021/07/22 06:39:15;;;;;;;14.65;10.13;;;;;;;19.94;74.52;100928.81;5032624;28;20104;-71
2021/07/22 06:41:59;;;;;;;15.93;11.07;;;;;;;19.99;74.44;100926.38;5018508;28;20236;-71
2021/07/22 06:44:43;;;;;;;17.52;11.20;;;;;;;19.96;73.43;100924.03;5018199;28;20055;-71
2021/07/22 06:47:27;;;;;;;16.17;11.18;;;;;;;20.00;73.24;100920.75;5033197;28;20556;-71
2021/07/22 06:50:13;;;;;;;17.27;10.32;;;;;;;20.13;72.80;100920.13;5031893;28;20064;-71
2021/07/22 06:52:57;;;;;;;17.83;10.57;;;;;;;20.20;72.31;100921.88;5032469;28;20402;-71
2021/07/22 06:55:40;;;;;;;19.90;10.40;;;;;;;20.40;72.99;100922.13;5032290;28;20140;-71
2021/07/22 06:58:25;;;;;;;17.75;10.05;;;;;;;20.39;70.80;100918.56;5031976;28;20418;-71
2021/07/22 07:01:09;;;;;;;14.60;10.25;;;;;;;20.47;70.46;100918.44;5032229;28;20129;-71
2021/07/22 07:03:56;;;;;;;13.73;9.43;;;;;;;20.48;70.62;100909.28;5018785;28;20051;-71
2021/07/22 07:06:40;;;;;;;14.70;9.73;;;;;;;20.74;68.25;100911.44;5032355;28;20179;-71
2021/07/22 07:09:24;;;;;;;16.85;9.95;;;;;;;20.90;68.25;100914.75;5031938;28;20421;-70
2021/07/22 07:12:09;;;;;;;11.38;9.05;;;;;;;21.08;68.36;100916.97;5032231;28;20063;-71
2021/07/22 07:14:53;;;;;;;15.45;8.23;;;;;;;21.27;68.09;100911.72;5032633;28;20122;-70
2021/07/22 07:17:37;;;;;;;15.75;8.75;;;;;;;21.36;66.32;100905.94;5031906;28;20052;-71
2021/07/22 07:20:21;;;;;;;13.88;8.25;;;;;;;21.45;64.89;100904.75;5032075;28;20064;-70
2021/07/22 07:23:05;;;;;;;10.35;7.47;;;;;;;21.50;65.63;100906.84;5032180;28;20076;-71
2021/07/22 07:25:49;;;;;;;;;;;;;;;21.48;65.20;100909.75;5032236;28;20095;-70
2021/07/22 07:28:33;;;;;;;12.73;8.27;;;;;;;21.58;64.72;100915.66;5032856;28;19924;-71
2021/07/22 07:31:21;;;;;;;13.13;8.18;;;;;;;21.65;64.90;100913.88;5036467;28;20163;-71
2021/07/22 07:34:05;;;;;;;11.43;7.68;;;;;;;21.74;64.06;100918.09;5035441;28;20145;-71
2021/07/22 07:36:49;;;;;;;14.43;7.47;;;;;;;21.76;64.66;100909.75;5035390;28;20095;-71
2021/07/22 07:39:34;;;;;;;10.60;7.43;;;;;;;21.87;63.73;100912.75;5035730;28;20052;-70
2021/07/22 07:42:18;;;;;;;12.38;7.72;;;;;;;21.96;64.21;100908.81;5036310;28;20048;-70
2021/07/22 07:45:02;;;;;;;14.68;7.20;;;;;;;22.10;63.87;100909.72;5035748;28;20407;-71
2021/07/22 07:47:46;;;;;;;14.75;7.45;;;;;;;22.14;63.26;100911.81;5035380;28;20107;-71
2021/07/22 07:50:30;;;;;;;12.88;7.68;;;;;;;22.16;62.41;100909.75;5036159;28;20176;-69
2021/07/22 07:53:16;;;;;;;11.77;7.82;;;;;;;22.24;62.19;100912.28;5021099;28;20283;-71
2021/07/22 07:56:00;;;;;;;12.40;7.05;;;;;;;22.25;62.07;100905.81;5035524;28;20482;-71
2021/07/22 07:58:44;;;;;;;12.52;7.55;;;;;;;22.37;61.27;100909.59;5021021;28;20148;-71
2021/07/22 08:01:29;;;;;;;11.20;8.35;;;;;;;22.44;61.71;100906.94;5035658;28;20084;-71
2021/07/22 08:04:14;;;;;;;11.27;7.25;;;;;;;22.56;62.07;100897.13;5021462;28;20060;-71
2021/07/22 08:06:58;;;;;;;11.07;7.93;;;;;;;22.62;61.91;100893.59;5035958;28;20119;-70
2021/07/22 08:09:44;;;;;;;10.63;8.25;;;;;;;22.66;59.82;100894.84;5035037;28;20098;-70
2021/07/22 08:12:28;;;;;;;16.48;7.43;;;;;;;22.82;61.12;100899.91;5036051;28;20079;-71
2021/07/22 08:15:12;;;;;;;16.65;7.82;;;;;;;22.85;59.47;100900.31;5036214;28;20068;-71
2021/07/22 08:17:56;;;;;;;12.63;7.32;;;;;;;22.95;59.76;100899.88;5034948;28;20107;-71
2021/07/22 08:20:40;;;;;;;13.23;7.88;;;;;;;23.03;60.94;100897.78;5034947;28;20043;-71
2021/07/22 08:23:25;;;;;;;14.10;7.57;;;;;;;23.04;58.48;100891.31;5020865;28;20576;-71
2021/07/22 08:26:09;;;;;;;10.05;7.18;;;;;;;23.10;59.88;100898.63;5034801;28;20175;-71
2021/07/22 08:28:53;;;;;;;11.77;8.05;;;;;;;23.13;58.17;100898.25;5034852;28;20048;-71
2021/07/22 08:31:37;;;;;;;10.73;7.97;;;;;;;23.27;58.09;100897.19;5034354;28;20040;-71
2021/07/22 08:34:21;;;;;;;10.38;7.85;;;;;;;23.36;58.92;100895.94;5034859;28;20060;-70
2021/07/22 08:37:08;;;;;;;10.70;7.95;;;;;;;23.50;57.47;100892.13;5035341;28;20521;-71
2021/07/22 08:39:56;;;;;;;12.60;8.15;;;;;;;23.54;58.18;100893.38;5034089;28;20050;-71
2021/07/22 08:42:43;;;;;;;12.98;7.50;;;;;;;23.65;58.26;100895.44;5034782;28;20044;-71
2021/07/22 08:45:27;;;;;;;13.10;7.28;;;;;;;23.66;57.43;100894.38;5034501;28;20057;-71
2021/07/22 08:48:11;;;;;;;12.15;7.25;;;;;;;23.77;58.50;100888.31;5035303;28;20080;-71
2021/07/22 08:50:55;;;;;;;12.85;7.68;;;;;;;;;;5050510;22;20052;-68
2021/07/22 08:53:40;;;;;;;12.95;8.00;;;;;;;24.08;55.53;100887.56;5015068;28;20060;-68
2021/07/22 08:56:26;;;;;;;12.07;7.43;;;;;;;24.16;55.60;100888.16;5000504;28;20049;-68
2021/07/22 08:59:10;;;;;;;9.90;6.88;;;;;;;24.21;55.45;100882.91;5013973;28;20423;-68
2021/07/22 09:01:55;;;;;;;10.73;7.10;;;;;;;24.36;54.92;100876.09;5028317;28;20048;-68
2021/07/22 09:04:54;;;;;;;10.75;7.57;;;;;;;24.49;54.30;100880.66;5020066;28;20052;-68
2021/07/22 09:07:38;;;;;;;9.02;6.95;;;;;;;24.59;54.11;100881.84;5035031;28;20067;-68
2021/07/22 09:10:22;;;;;;;11.77;7.28;;;;;;;24.79;55.36;100873.56;5034722;28;20514;-68
2021/07/22 09:13:22;;;;;;;9.23;7.32;;;;;;;24.94;54.61;100877.63;5019872;28;20084;-67
2021/07/22 09:16:08;;;;;;;11.13;7.45;;;;;;;25.08;52.63;100876.44;5033752;28;20471;-68
2021/07/22 09:18:52;;;;;;;13.23;7.15;;;;;;;25.28;52.49;100881.75;5033755;28;20087;-68
2021/07/22 09:21:39;;;;;;;11.32;7.10;;;;;;;25.49;52.59;100879.44;5033500;28;20110;-68
2021/07/22 09:24:23;;;;;;;10.13;7.88;;;;;;;25.64;52.40;100873.59;5033494;28;20084;-68
2021/07/22 09:27:07;;;;;;;;;;;;;;;25.67;52.90;100873.13;5033906;28;20138;-68
2021/07/22 09:29:57;;;;;;;9.07;7.63;;;;;;;25.85;51.33;100873.16;5019491;28;19967;-68
2021/07/22 09:32:45;;;;;;;12.90;7.43;;;;;;;25.94;51.60;100869.06;5033102;28;20110;-68
2021/07/22 09:35:28;;;;;;;11.18;7.30;;;;;;;26.14;50.86;100869.66;5033371;28;20048;-68
2021/07/22 09:38:12;;;;;;;;;;;;;;;26.25;50.00;100872.44;5034597;28;20055;-68
2021/07/22 09:40:56;;;;;;;12.98;6.68;;;;;;;26.33;48.42;100868.56;5032869;28;19959;-68
2021/07/22 09:43:40;;;;;;;;;;;;;;;26.51;48.12;100868.50;5033342;28;20434;-68
2021/07/22 09:46:40;;;;;;;15.02;7.18;;;;;;;26.74;47.75;100865.88;5032852;28;20428;-68
2021/07/22 09:49:31;;;;;;;10.32;7.15;;;;;;;26.97;47.48;100868.63;5033054;28;20111;-68
2021/07/22 09:52:18;;;;;;;12.35;7.65;;;;;;;27.25;46.12;100870.47;5018019;28;20414;-68
2021/07/22 09:55:02;;;;;;;12.55;6.70;;;;;;;27.48;47.32;100872.34;5034006;28;20052;-68
2021/07/22 09:57:46;;;;;;;9.45;6.63;;;;;;;27.71;46.80;100861.38;5033936;28;20060;-68
2021/07/22 10:00:32;;;;;;;9.80;7.07;;;;;;;27.95;44.93;100858.34;5032845;28;20048;-68
2021/07/22 10:03:18;;;;;;;10.02;7.10;;;;;;;28.19;44.37;100859.97;5032880;28;20047;-68
2021/07/22 10:06:05;;;;;;;11.48;7.22;;;;;;;28.48;43.89;100852.56;5032832;28;20053;-68
2021/07/22 10:08:49;;;;;;;11.38;6.57;;;;;;;28.76;42.13;100856.09;5032760;28;20457;-68
2021/07/22 10:11:33;;;;;;;;;;;;;;;28.84;42.06;100847.47;5033052;28;20051;-68
2021/07/22 10:14:18;;;;;;;7.97;6.50;;;;;;;29.31;41.42;100842.47;5018759;28;19932;-67
2021/07/22 10:17:03;;;;;;;11.25;7.47;;;;;;;29.81;40.03;100843.19;5032459;28;20060;-68
2021/07/22 10:19:47;;;;;;;7.05;6.07;;;;;;;30.26;39.61;100837.19;5032682;28;20051;-68
2021/07/22 10:22:34;;;;;;;9.48;7.20;;;;;;;30.78;37.69;100830.03;5018329;28;20087;-68
2021/07/22 10:25:18;;;;;;;9.65;6.80;;;;;;;31.17;36.58;100830.63;5018949;28;20059;-68
2021/07/22 10:28:02;;;;;;;11.20;7.30;;;;;;;31.94;35.58;100828.84;5032519;28;20171;-68
2021/07/22 10:30:48;;;;;;;10.82;6.25;;;;;;;33.10;33.20;100824.13;5018302;28;20045;-68
2021/07/22 10:33:34;;;;;;;9.40;6.60;;;;;;;34.62;31.41;100815.78;5018485;28;20059;-68
2021/07/22 10:36:19;;;;;;;9.43;6.85;;;;;;;36.41;28.10;100812.16;5032707;28;20060;-68
2021/07/22 10:39:03;;;;;;;10.13;6.07;;;;;;;37.80;26.41;100817.19;5032369;28;20068;-69
2021/07/22 10:41:47;;;;;;;10.38;7.47;;;;;;;38.57;23.28;100818.00;5033343;28;20060;-68
2021/07/22 10:44:34;;;;;;;8.15;5.43;;;;;;;39.32;22.55;100810.53;5018502;28;20111;-69
2021/07/22 10:47:18;;;;;;;7.10;5.63;;;;;;;39.43;22.33;100805.16;5032529;28;20580;-68
2021/07/22 10:50:02;;;;;;;9.52;5.70;;;;;;;39.52;22.46;100808.81;5031958;28;20048;-69
2021/07/22 10:53:03;;;;;;;7.40;6.20;;;;;;;40.38;20.73;100802.31;5032109;28;20470;-68
2021/07/22 10:55:47;;;;;;;6.30;5.70;;;;;;;41.12;20.99;100800.13;5018054;28;20080;-68
2021/07/22 10:58:33;;;;;;;9.75;5.90;;;;;;;41.37;19.30;100797.28;5032238;28;20501;-69
2021/07/22 11:01:42;;;;;;;9.35;6.20;;;;;;;41.60;19.02;100789.41;5032843;28;20124;-69
2021/07/22 11:04:35;;;;;;;7.90;5.97;;;;;;;42.21;18.97;100794.34;5036936;28;20051;-69
2021/07/22 11:07:20;;;;;;;8.75;5.80;;;;;;;42.19;19.21;100785.47;5037150;28;20060;-69
2021/07/22 11:10:04;;;;;;;7.55;6.15;;;;;;;42.67;18.79;100785.75;5022136;28;20052;-69
2021/07/22 11:12:49;;;;;;;7.70;6.10;;;;;;;42.90;17.74;100790.66;5037097;28;20418;-69
2021/07/22 11:15:46;;;;;;;6.82;6.13;;;;;;;43.07;17.71;100782.03;5036067;28;20502;-69
2021/07/22 11:18:39;;;;;;;6.93;6.22;;;;;;;43.33;17.55;100783.41;5035757;28;20072;-69
2021/07/22 11:21:27;;;;;;;9.50;6.63;;;;;;;43.72;17.04;100787.56;5035695;28;20120;-69
2021/07/22 11:24:18;;;;;;;7.50;5.70;;;;;;;43.68;17.63;100790.25;5035891;28;20489;-69
2021/07/22 11:27:03;;;;;;;7.20;6.50;;;;;;;42.81;17.92;100773.88;5036608;28;20533;-69
2021/07/22 11:29:46;;;;;;;9.13;6.25;;;;;;;43.13;17.80;100775.06;5035388;28;20055;-69
2021/07/22 11:32:30;;;;;;;6.97;5.43;;;;;;;43.06;17.94;100775.63;5035596;28;20533;-69
2021/07/22 11:35:17;;;;;;;9.77;6.60;;;;;;;43.11;17.57;100775.38;5036367;28;20128;-69
2021/07/22 11:38:01;;;;;;;7.55;6.40;;;;;;;43.37;17.68;100767.50;5035895;28;20549;-69
2021/07/22 11:40:45;;;;;;;6.75;5.93;;;;;;;43.37;17.75;100763.88;5036341;28;20048;-69
2021/07/22 11:43:46;;;;;;;8.05;5.80;;;;;;;43.34;17.80;100761.78;5035502;28;20052;-70
2021/07/22 11:46:45;;;;;;;11.63;6.07;;;;;;;43.71;17.31;100763.44;5021192;28;20052;-69
2021/07/22 11:49:33;;;;;;;6.80;6.10;;;;;;;44.12;16.93;100763.16;5036066;28;20572;-69
2021/07/22 11:52:25;;;;;;;10.20;7.07;;;;;;;44.21;16.81;100761.00;5035812;28;20040;-69
2021/07/22 11:55:11;;;;;;;9.52;8.55;;;;;;;44.38;16.89;100746.66;5035519;28;20119;-69
2021/07/22 11:57:55;;;;;;;9.15;6.70;;;;;;;43.83;17.19;100755.00;5034693;28;20135;-67
2021/07/22 12:00:39;;;;;;;7.28;6.53;;;;;;;44.29;17.21;100741.22;5036002;28;20417;-71
2021/07/22 12:03:23;;;;;;;7.65;6.25;;;;;;;44.42;17.43;100756.06;5035139;28;20049;-71
2021/07/22 12:06:07;;;;;;;10.65;7.13;;;;;;;44.07;16.69;100738.94;5036003;28;20068;-71
2021/07/22 12:09:05;;;;;;;8.15;6.68;;;;;;;44.46;17.20;100743.72;5020753;28;20080;-71
2021/07/22 12:11:51;;;;;;;7.78;7.00;;;;;;;44.86;17.01;100732.44;5034530;28;20509;-71
2021/07/22 12:14:37;;;;;;;8.38;6.32;;;;;;;44.73;16.68;100726.03;5034944;28;20056;-71
2021/07/22 12:17:21;;;;;;;8.38;6.60;;;;;;;43.95;16.89;100724.06;5034555;28;20461;-71
2021/07/22 12:20:05;;;;;;;7.97;6.90;;;;;;;44.24;17.01;100723.78;5034919;28;20129;-71
2021/07/22 12:22:49;;;;;;;7.97;7.20;;;;;;;44.15;16.90;100725.91;5034704;28;20171;-71
2021/07/22 12:25:33;;;;;;;8.52;7.13;;;;;;;43.78;17.91;100718.72;5035739;28;20064;-71
2021/07/22 12:28:17;;;;;;;7.43;6.72;;;;;;;44.50;17.80;100710.09;5034686;28;20099;-71
2021/07/22 12:31:38;;;;;;;7.90;6.82;;;;;;;44.65;17.54;100712.13;5020488;28;20055;-71
2021/07/22 12:34:22;;;;;;;12.77;7.38;;;;;;;44.77;17.44;100714.88;5003708;28;20697;-70
2021/07/22 12:37:05;;;;;;;11.10;7.18;;;;;;;44.33;17.57;100713.19;5034421;28;20414;-70
2021/07/22 12:39:49;;;;;;;9.93;7.68;;;;;;;44.66;16.88;100700.50;5020495;28;20430;-71
2021/07/22 12:42:33;;;;;;;10.07;6.78;;;;;;;44.90;17.28;100697.59;5034350;28;20107;-71
2021/07/22 12:45:17;;;;;;;8.57;6.65;;;;;;;44.93;17.64;100696.06;5034122;28;20057;-70